sensor_id;sensor_type;location;lat;lon;timestamp;pressure;altitude;pressure_sealevel;temperature;humidity
25526;BME280;13424;48.424;11.258;2022-08-19T00:01:57;95093.38;;;20.76;96.30
25526;BME280;13424;48.424;11.258;2022-08-19T00:04:32;95090.50;;;20.81;96.33
25526;BME280;13424;48.424;11.258;2022-08-19T00:07:00;95099.44;;;20.90;96.01
25526;BME280;13424;48.424;11.258;2022-08-19T00:09:28;95096.72;;;20.73;96.79
25526;BME280;13424;48.424;11.258;2022-08-19T00:11:58;95100.38;;;20.77;96.29
25526;BME280;13424;48.424;11.258;2022-08-19T00:14:26;95105.63;;;20.65;97.02
25526;BME280;13424;48.424;11.258;2022-08-19T00:16:53;95106.09;;;20.67;96.87
25526;BME280;13424;48.424;11.258;2022-08-19T00:19:22;95110.72;;;20.67;96.88
25526;BME280;13424;48.424;11.258;2022-08-19T00:21:48;95125.53;;;20.69;96.96
25526;BME280;13424;48.424;11.258;2022-08-19T00:24:14;95126.03;;;20.71;96.99
25526;BME280;13424;48.424;11.258;2022-08-19T00:26:42;95127.53;;;20.86;96.48
25526;BME280;13424;48.424;11.258;2022-08-19T00:29:13;95136.78;;;20.94;95.99
25526;BME280;13424;48.424;11.258;2022-08-19T00:31:40;95127.19;;;20.87;96.10
25526;BME280;13424;48.424;11.258;2022-08-19T00:34:07;95132.78;;;21.00;95.52
25526;BME280;13424;48.424;11.258;2022-08-19T00:36:33;95118.28;;;21.04;95.29
25526;BME280;13424;48.424;11.258;2022-08-19T00:39:00;95124.84;;;21.12;94.62
25526;BME280;13424;48.424;11.258;2022-08-19T00:41:27;95121.16;;;21.08;94.42
25526;BME280;13424;48.424;11.258;2022-08-19T00:44:16;95119.91;;;21.23;93.84
25526;BME280;13424;48.424;11.258;2022-08-19T00:46:48;95122.91;;;21.04;94.30
25526;BME280;13424;48.424;11.258;2022-08-19T00:49:29;95113.19;;;21.03;94.16
25526;BME280;13424;48.424;11.258;2022-08-19T00:52:12;95115.25;;;20.97;94.80
25526;BME280;13424;48.424;11.258;2022-08-19T00:54:41;95105.53;;;21.05;94.46
25526;BME280;13424;48.424;11.258;2022-08-19T00:57:13;95108.56;;;20.95;94.83
25526;BME280;13424;48.424;11.258;2022-08-19T00:59:43;95108.69;;;20.89;95.34
25526;BME280;13424;48.424;11.258;2022-08-19T01:02:09;95104.75;;;21.04;94.67
25526;BME280;13424;48.424;11.258;2022-08-19T01:04:35;95110.63;;;20.98;94.66
25526;BME280;13424;48.424;11.258;2022-08-19T01:07:02;95102.19;;;21.08;94.52
25526;BME280;13424;48.424;11.258;2022-08-19T01:09:29;95111.75;;;21.14;93.69
25526;BME280;13424;48.424;11.258;2022-08-19T01:11:57;95117.66;;;21.16;94.01
25526;BME280;13424;48.424;11.258;2022-08-19T01:14:23;95120.53;;;21.11;94.51
25526;BME280;13424;48.424;11.258;2022-08-19T01:16:50;95125.22;;;21.28;93.59
25526;BME280;13424;48.424;11.258;2022-08-19T01:19:36;95124.03;;;21.11;94.09
25526;BME280;13424;48.424;11.258;2022-08-19T01:24:44;95124.03;;;21.11;94.25
25526;BME280;13424;48.424;11.258;2022-08-19T01:27:10;95116.38;;;21.22;93.21
25526;BME280;13424;48.424;11.258;2022-08-19T01:29:41;95117.81;;;21.02;93.58
25526;BME280;13424;48.424;11.258;2022-08-19T01:32:13;95123.59;;;21.27;93.42
25526;BME280;13424;48.424;11.258;2022-08-19T01:34:40;95117.72;;;21.33;93.03
25526;BME280;13424;48.424;11.258;2022-08-19T01:37:11;95119.47;;;21.29;93.08
25526;BME280;13424;48.424;11.258;2022-08-19T01:39:39;95134.28;;;21.40;92.57
25526;BME280;13424;48.424;11.258;2022-08-19T01:42:07;95142.13;;;21.33;93.23
25526;BME280;13424;48.424;11.258;2022-08-19T01:44:41;95139.56;;;21.28;92.72
25526;BME280;13424;48.424;11.258;2022-08-19T01:47:08;95138.75;;;21.36;93.32
25526;BME280;13424;48.424;11.258;2022-08-19T01:49:36;95135.59;;;21.34;93.05
25526;BME280;13424;48.424;11.258;2022-08-19T01:52:05;95135.41;;;21.48;92.64
25526;BME280;13424;48.424;11.258;2022-08-19T01:54:32;95121.16;;;21.16;93.69
25526;BME280;13424;48.424;11.258;2022-08-19T01:57:09;95111.28;;;21.21;93.66
25526;BME280;13424;48.424;11.258;2022-08-19T01:59:37;95129.94;;;21.22;93.76
25526;BME280;13424;48.424;11.258;2022-08-19T02:02:05;95130.16;;;21.34;93.35
25526;BME280;13424;48.424;11.258;2022-08-19T02:04:35;95147.22;;;21.43;92.81
25526;BME280;13424;48.424;11.258;2022-08-19T02:07:01;95158.88;;;21.35;93.13
25526;BME280;13424;48.424;11.258;2022-08-19T02:09:27;95150.09;;;21.30;93.56
25526;BME280;13424;48.424;11.258;2022-08-19T02:11:53;95156.13;;;21.27;94.18
25526;BME280;13424;48.424;11.258;2022-08-19T02:14:19;95155.78;;;21.11;95.13
25526;BME280;13424;48.424;11.258;2022-08-19T02:16:45;95148.31;;;21.25;94.84
25526;BME280;13424;48.424;11.258;2022-08-19T02:19:11;95140.53;;;21.41;94.38
25526;BME280;13424;48.424;11.258;2022-08-19T02:21:37;95136.63;;;21.25;94.49
25526;BME280;13424;48.424;11.258;2022-08-19T02:24:04;95135.38;;;21.22;94.15
25526;BME280;13424;48.424;11.258;2022-08-19T02:26:31;95138.09;;;21.22;94.59
25526;BME280;13424;48.424;11.258;2022-08-19T02:28:57;95134.78;;;21.42;93.55
25526;BME280;13424;48.424;11.258;2022-08-19T02:31:25;95131.84;;;21.13;95.46
25526;BME280;13424;48.424;11.258;2022-08-19T02:33:55;95130.31;;;21.29;94.19
25526;BME280;13424;48.424;11.258;2022-08-19T02:36:23;95135.03;;;20.98;96.10
25526;BME280;13424;48.424;11.258;2022-08-19T02:38:49;95132.50;;;21.10;95.56
25526;BME280;13424;48.424;11.258;2022-08-19T02:41:25;95142.88;;;21.25;94.72
25526;BME280;13424;48.424;11.258;2022-08-19T02:43:51;95144.34;;;21.40;94.23
25526;BME280;13424;48.424;11.258;2022-08-19T02:46:27;95148.16;;;21.48;93.39
25526;BME280;13424;48.424;11.258;2022-08-19T02:49:02;95162.38;;;21.44;93.06
25526;BME280;13424;48.424;11.258;2022-08-19T02:51:35;95163.75;;;21.25;94.75
25526;BME280;13424;48.424;11.258;2022-08-19T02:54:02;95158.69;;;21.32;94.65
25526;BME280;13424;48.424;11.258;2022-08-19T02:56:28;95153.41;;;21.18;95.10
25526;BME280;13424;48.424;11.258;2022-08-19T02:58:58;95145.56;;;21.16;94.66
25526;BME280;13424;48.424;11.258;2022-08-19T03:01:30;95152.75;;;21.04;94.88
25526;BME280;13424;48.424;11.258;2022-08-19T03:04:00;95148.13;;;21.22;93.97
25526;BME280;13424;48.424;11.258;2022-08-19T03:06:27;95150.88;;;21.30;94.37
25526;BME280;13424;48.424;11.258;2022-08-19T03:08:54;95147.38;;;21.38;93.65
25526;BME280;13424;48.424;11.258;2022-08-19T03:11:31;95135.69;;;21.21;93.88
25526;BME280;13424;48.424;11.258;2022-08-19T03:13:59;95130.28;;;21.21;94.40
25526;BME280;13424;48.424;11.258;2022-08-19T03:16:34;95136.81;;;21.19;93.98
25526;BME280;13424;48.424;11.258;2022-08-19T03:19:01;95134.25;;;21.23;94.10
25526;BME280;13424;48.424;11.258;2022-08-19T03:21:33;95115.09;;;20.94;95.30
25526;BME280;13424;48.424;11.258;2022-08-19T03:24:07;95107.91;;;20.98;95.37
25526;BME280;13424;48.424;11.258;2022-08-19T03:26:38;95117.66;;;21.07;95.11
25526;BME280;13424;48.424;11.258;2022-08-19T03:29:06;95117.16;;;20.97;95.76
25526;BME280;13424;48.424;11.258;2022-08-19T03:31:32;95111.41;;;20.89;96.03
25526;BME280;13424;48.424;11.258;2022-08-19T03:33:58;95117.31;;;21.00;95.52
25526;BME280;13424;48.424;11.258;2022-08-19T03:36:26;95114.13;;;20.89;95.48
25526;BME280;13424;48.424;11.258;2022-08-19T03:38:58;95127.69;;;21.07;94.93
25526;BME280;13424;48.424;11.258;2022-08-19T03:41:32;95140.47;;;21.15;94.31
25526;BME280;13424;48.424;11.258;2022-08-19T03:43:59;95146.66;;;21.07;94.87
25526;BME280;13424;48.424;11.258;2022-08-19T03:46:30;95148.34;;;21.34;93.39
25526;BME280;13424;48.424;11.258;2022-08-19T03:48:59;95144.47;;;21.26;93.70
25526;BME280;13424;48.424;11.258;2022-08-19T03:51:32;95143.88;;;21.29;93.13
25526;BME280;13424;48.424;11.258;2022-08-19T03:54:06;95144.63;;;21.21;93.60
25526;BME280;13424;48.424;11.258;2022-08-19T03:56:36;95143.19;;;21.15;93.82
25526;BME280;13424;48.424;11.258;2022-08-19T03:59:05;95143.69;;;21.26;92.72
25526;BME280;13424;48.424;11.258;2022-08-19T04:01:32;95136.03;;;21.19;93.53
25526;BME280;13424;48.424;11.258;2022-08-19T04:04:00;95141.00;;;21.34;92.67
25526;BME280;13424;48.424;11.258;2022-08-19T04:06:32;95138.75;;;21.36;92.67
25526;BME280;13424;48.424;11.258;2022-08-19T04:09:02;95144.50;;;21.35;92.84
25526;BME280;13424;48.424;11.258;2022-08-19T04:11:35;95139.06;;;21.26;92.92
25526;BME280;13424;48.424;11.258;2022-08-19T04:14:09;95144.19;;;21.45;92.02
25526;BME280;13424;48.424;11.258;2022-08-19T04:16:36;95140.69;;;21.53;91.71
25526;BME280;13424;48.424;11.258;2022-08-19T04:19:05;95143.06;;;21.55;91.56
25526;BME280;13424;48.424;11.258;2022-08-19T04:21:31;95136.53;;;21.38;92.24
25526;BME280;13424;48.424;11.258;2022-08-19T04:23:58;95121.69;;;21.44;92.27
25526;BME280;13424;48.424;11.258;2022-08-19T04:26:31;95124.22;;;21.32;93.21
25526;BME280;13424;48.424;11.258;2022-08-19T04:31:58;95119.00;;;21.27;92.75
25526;BME280;13424;48.424;11.258;2022-08-19T04:34:27;95127.13;;;21.27;92.58
25526;BME280;13424;48.424;11.258;2022-08-19T04:36:58;95120.09;;;21.43;91.58
25526;BME280;13424;48.424;11.258;2022-08-19T04:39:29;95117.38;;;21.26;92.66
25526;BME280;13424;48.424;11.258;2022-08-19T04:42:17;95126.63;;;21.25;93.01
25526;BME280;13424;48.424;11.258;2022-08-19T04:45:09;95129.19;;;21.30;92.59
25526;BME280;13424;48.424;11.258;2022-08-19T04:47:41;95138.75;;;21.36;92.11
25526;BME280;13424;48.424;11.258;2022-08-19T04:50:08;95145.00;;;21.37;91.88
25526;BME280;13424;48.424;11.258;2022-08-19T04:52:38;95151.16;;;21.20;92.60
25526;BME280;13424;48.424;11.258;2022-08-19T04:55:10;95166.34;;;21.30;92.34
25526;BME280;13424;48.424;11.258;2022-08-19T04:57:36;95174.66;;;21.33;92.06
25526;BME280;13424;48.424;11.258;2022-08-19T05:00:08;95177.53;;;21.45;91.50
25526;BME280;13424;48.424;11.258;2022-08-19T05:02:35;95182.81;;;21.51;91.19
25526;BME280;13424;48.424;11.258;2022-08-19T05:05:01;95179.94;;;21.56;91.42
25526;BME280;13424;48.424;11.258;2022-08-19T05:07:27;95188.06;;;21.64;90.49
25526;BME280;13424;48.424;11.258;2022-08-19T05:09:53;95184.72;;;21.59;90.97
25526;BME280;13424;48.424;11.258;2022-08-19T05:12:19;95187.13;;;21.69;90.51
25526;BME280;13424;48.424;11.258;2022-08-19T05:14:46;95185.53;;;21.68;90.20
25526;BME280;13424;48.424;11.258;2022-08-19T05:17:14;95189.03;;;21.77;90.01
25526;BME280;13424;48.424;11.258;2022-08-19T05:19:40;95190.81;;;21.73;90.66
25526;BME280;13424;48.424;11.258;2022-08-19T05:22:24;95201.00;;;21.67;91.10
25526;BME280;13424;48.424;11.258;2022-08-19T05:25:15;95202.28;;;21.35;91.99
25526;BME280;13424;48.424;11.258;2022-08-19T05:27:44;95201.81;;;21.51;91.33
25526;BME280;13424;48.424;11.258;2022-08-19T05:30:12;95205.13;;;21.39;91.92
25526;BME280;13424;48.424;11.258;2022-08-19T05:32:39;95205.78;;;21.62;90.95
25526;BME280;13424;48.424;11.258;2022-08-19T05:35:06;95201.81;;;21.68;90.27
25526;BME280;13424;48.424;11.258;2022-08-19T05:37:33;95203.72;;;21.59;90.54
25526;BME280;13424;48.424;11.258;2022-08-19T05:39:59;95198.78;;;21.52;90.98
25526;BME280;13424;48.424;11.258;2022-08-19T05:42:25;95198.13;;;21.64;90.28
25526;BME280;13424;48.424;11.258;2022-08-19T05:44:52;95194.47;;;21.60;90.54
25526;BME280;13424;48.424;11.258;2022-08-19T05:47:19;95191.44;;;21.70;89.92
25526;BME280;13424;48.424;11.258;2022-08-19T05:49:45;95187.28;;;21.72;89.83
25526;BME280;13424;48.424;11.258;2022-08-19T05:52:14;95190.00;;;21.72;89.67
25526;BME280;13424;48.424;11.258;2022-08-19T05:54:43;95185.34;;;21.56;90.25
25526;BME280;13424;48.424;11.258;2022-08-19T05:57:11;95186.31;;;21.77;89.36
25526;BME280;13424;48.424;11.258;2022-08-19T05:59:37;95183.59;;;21.86;89.23
25526;BME280;13424;48.424;11.258;2022-08-19T06:02:05;95180.75;;;21.65;90.03
25526;BME280;13424;48.424;11.258;2022-08-19T06:04:33;95182.00;;;21.76;89.58
25526;BME280;13424;48.424;11.258;2022-08-19T06:06:59;95180.09;;;21.77;89.37
25526;BME280;13424;48.424;11.258;2022-08-19T06:09:27;95181.69;;;21.78;89.49
25526;BME280;13424;48.424;11.258;2022-08-19T06:11:57;95178.50;;;21.76;89.57
25526;BME280;13424;48.424;11.258;2022-08-19T06:14:32;95177.53;;;21.80;89.51
25526;BME280;13424;48.424;11.258;2022-08-19T06:17:00;95168.31;;;21.72;89.85
25526;BME280;13424;48.424;11.258;2022-08-19T06:19:29;95181.69;;;21.78;89.40
25526;BME280;13424;48.424;11.258;2022-08-19T06:21:57;95183.91;;;21.84;89.59
25526;BME280;13424;48.424;11.258;2022-08-19T06:24:28;95185.84;;;21.84;89.58
25526;BME280;13424;48.424;11.258;2022-08-19T06:26:59;95185.34;;;21.90;89.27
25526;BME280;13424;48.424;11.258;2022-08-19T06:29:27;95203.25;;;22.09;88.94
25526;BME280;13424;48.424;11.258;2022-08-19T06:31:58;95197.16;;;21.94;88.98
25526;BME280;13424;48.424;11.258;2022-08-19T06:34:27;95193.03;;;21.88;89.20
25526;BME280;13424;48.424;11.258;2022-08-19T06:36:55;95192.50;;;22.03;89.04
25526;BME280;13424;48.424;11.258;2022-08-19T06:39:26;95200.50;;;22.17;88.08
25526;BME280;13424;48.424;11.258;2022-08-19T06:41:59;95204.19;;;21.78;89.48
25526;BME280;13424;48.424;11.258;2022-08-19T06:44:31;95216.47;;;21.93;89.36
25526;BME280;13424;48.424;11.258;2022-08-19T06:47:07;95207.69;;;21.87;89.86
25526;BME280;13424;48.424;11.258;2022-08-19T06:49:35;95206.59;;;21.88;89.49
25526;BME280;13424;48.424;11.258;2022-08-19T06:52:02;95205.63;;;21.93;89.63
25526;BME280;13424;48.424;11.258;2022-08-19T06:54:28;95203.72;;;21.93;89.76
25526;BME280;13424;48.424;11.258;2022-08-19T06:56:59;95212.34;;;22.04;89.19
25526;BME280;13424;48.424;11.258;2022-08-19T06:59:31;95204.84;;;22.10;88.99
25526;BME280;13424;48.424;11.258;2022-08-19T07:02:04;95206.09;;;22.03;89.16
25526;BME280;13424;48.424;11.258;2022-08-19T07:04:36;95205.16;;;21.99;89.20
25526;BME280;13424;48.424;11.258;2022-08-19T07:07:13;95201.78;;;22.02;89.18
25526;BME280;13424;48.424;11.258;2022-08-19T07:09:43;95196.53;;;22.06;89.23
25526;BME280;13424;48.424;11.258;2022-08-19T07:12:13;95201.16;;;22.23;88.37
25526;BME280;13424;48.424;11.258;2022-08-19T07:14:42;95203.22;;;22.26;87.95
25526;BME280;13424;48.424;11.258;2022-08-19T07:17:11;95206.59;;;22.23;88.65
25526;BME280;13424;48.424;11.258;2022-08-19T07:19:39;95198.91;;;22.25;88.30
25526;BME280;13424;48.424;11.258;2022-08-19T07:22:08;95197.34;;;22.15;88.46
25526;BME280;13424;48.424;11.258;2022-08-19T07:24:35;95198.78;;;22.13;88.55
25526;BME280;13424;48.424;11.258;2022-08-19T07:27:04;95193.94;;;22.27;87.58
25526;BME280;13424;48.424;11.258;2022-08-19T07:29:34;95198.78;;;22.13;88.90
25526;BME280;13424;48.424;11.258;2022-08-19T07:32:02;95194.53;;;22.41;86.99
25526;BME280;13424;48.424;11.258;2022-08-19T07:34:30;95194.78;;;22.10;88.14
25526;BME280;13424;48.424;11.258;2022-08-19T07:36:58;95198.28;;;21.85;89.13
25526;BME280;13424;48.424;11.258;2022-08-19T07:39:33;95197.78;;;22.00;88.79
25526;BME280;13424;48.424;11.258;2022-08-19T07:42:06;95187.25;;;22.16;88.22
25526;BME280;13424;48.424;11.258;2022-08-19T07:44:33;95195.09;;;22.09;88.58
25526;BME280;13424;48.424;11.258;2022-08-19T07:47:00;95195.56;;;21.93;89.24
25526;BME280;13424;48.424;11.258;2022-08-19T07:49:27;95196.84;;;21.96;89.24
25526;BME280;13424;48.424;11.258;2022-08-19T07:52:05;95191.25;;;22.01;88.90
25526;BME280;13424;48.424;11.258;2022-08-19T07:54:37;95191.41;;;22.05;89.29
25526;BME280;13424;48.424;11.258;2022-08-19T07:57:04;95192.56;;;22.12;89.92
25526;BME280;13424;48.424;11.258;2022-08-19T07:59:30;95185.03;;;21.83;92.09
25526;BME280;13424;48.424;11.258;2022-08-19T08:01:57;95179.78;;;22.13;89.99
25526;BME280;13424;48.424;11.258;2022-08-19T08:04:28;95181.47;;;22.26;90.20
25526;BME280;13424;48.424;11.258;2022-08-19T08:07:13;95180.97;;;22.41;88.91
25526;BME280;13424;48.424;11.258;2022-08-19T08:09:58;95187.25;;;22.07;90.40
25526;BME280;13424;48.424;11.258;2022-08-19T08:12:34;95186.16;;;22.08;90.93
25526;BME280;13424;48.424;11.258;2022-08-19T08:15:08;95191.88;;;22.07;90.96
25526;BME280;13424;48.424;11.258;2022-08-19T08:17:35;95189.81;;;22.21;90.52
25526;BME280;13424;48.424;11.258;2022-08-19T08:20:05;95189.56;;;22.43;88.82
25526;BME280;13424;48.424;11.258;2022-08-19T08:22:33;95199.38;;;22.36;89.66
25526;BME280;13424;48.424;11.258;2022-08-19T08:25:22;95205.31;;;22.12;90.34
25526;BME280;13424;48.424;11.258;2022-08-19T08:27:50;95196.69;;;21.84;91.32
25526;BME280;13424;48.424;11.258;2022-08-19T08:30:23;95199.09;;;22.20;90.88
25526;BME280;13424;48.424;11.258;2022-08-19T08:32:51;95196.84;;;22.22;90.50
25526;BME280;13424;48.424;11.258;2022-08-19T08:35:21;95192.69;;;22.16;90.93
25526;BME280;13424;48.424;11.258;2022-08-19T08:37:51;95189.34;;;22.10;90.94
25526;BME280;13424;48.424;11.258;2022-08-19T08:40:50;95193.00;;;21.71;92.69
25526;BME280;13424;48.424;11.258;2022-08-19T08:43:35;95184.09;;;21.96;91.78
25526;BME280;13424;48.424;11.258;2022-08-19T08:46:15;95184.06;;;21.79;92.91
25526;BME280;13424;48.424;11.258;2022-08-19T08:49:43;95190.63;;;22.13;90.91
25526;BME280;13424;48.424;11.258;2022-08-19T08:52:00;95184.38;;;22.21;91.34
25526;BME280;13424;48.424;11.258;2022-08-19T08:54:42;95192.50;;;22.29;91.44
25526;BME280;13424;48.424;11.258;2022-08-19T09:00:37;95193.47;;;22.25;90.04
25526;BME280;13424;48.424;11.258;2022-08-19T09:03:19;95206.59;;;22.14;91.66
25526;BME280;13424;48.424;11.258;2022-08-19T09:06:04;95208.16;;;22.24;90.72
25526;BME280;13424;48.424;11.258;2022-08-19T09:09:08;95203.56;;;22.16;92.28
25526;BME280;13424;48.424;11.258;2022-08-19T09:14:53;95209.75;;;22.34;90.33
25526;BME280;13424;48.424;11.258;2022-08-19T09:17:29;95215.22;;;22.16;90.94
25526;BME280;13424;48.424;11.258;2022-08-19T09:20:21;95215.66;;;22.44;90.45
25526;BME280;13424;48.424;11.258;2022-08-19T09:22:48;95210.63;;;22.64;89.49
25526;BME280;13424;48.424;11.258;2022-08-19T09:25:20;95219.53;;;22.73;89.96
25526;BME280;13424;48.424;11.258;2022-08-19T09:27:49;95213.44;;;22.84;89.13
25526;BME280;13424;48.424;11.258;2022-08-19T09:30:29;95213.47;;;22.76;89.80
25526;BME280;13424;48.424;11.258;2022-08-19T09:32:56;95214.00;;;22.61;89.87
25526;BME280;13424;48.424;11.258;2022-08-19T09:35:25;95210.72;;;22.29;89.63
25526;BME280;13424;48.424;11.258;2022-08-19T09:37:53;95210.53;;;22.34;91.24
25526;BME280;13424;48.424;11.258;2022-08-19T09:40:19;95210.28;;;22.10;92.37
25526;BME280;13424;48.424;11.258;2022-08-19T09:42:46;95202.59;;;22.29;92.30
25526;BME280;13424;48.424;11.258;2022-08-19T09:45:15;95216.31;;;22.24;92.49
25526;BME280;13424;48.424;11.258;2022-08-19T09:47:43;95214.53;;;22.45;91.44
25526;BME280;13424;48.424;11.258;2022-08-19T09:50:11;95208.75;;;22.47;91.04
25526;BME280;13424;48.424;11.258;2022-08-19T09:52:38;95211.03;;;22.19;93.67
25526;BME280;13424;48.424;11.258;2022-08-19T09:55:07;95205.16;;;22.17;93.52
25526;BME280;13424;48.424;11.258;2022-08-19T09:57:34;95202.78;;;21.89;94.32
25526;BME280;13424;48.424;11.258;2022-08-19T10:00:01;95212.16;;;22.00;94.31
25526;BME280;13424;48.424;11.258;2022-08-19T10:02:34;95218.56;;;22.05;94.69
25526;BME280;13424;48.424;11.258;2022-08-19T10:05:00;95218.25;;;21.97;95.07
25526;BME280;13424;48.424;11.258;2022-08-19T10:07:45;95220.97;;;22.06;93.53
25526;BME280;13424;48.424;11.258;2022-08-19T10:10:11;95223.84;;;21.84;94.94
25526;BME280;13424;48.424;11.258;2022-08-19T10:12:37;95220.81;;;22.11;93.97
25526;BME280;13424;48.424;11.258;2022-08-19T10:15:05;95220.50;;;22.04;93.77
25526;BME280;13424;48.424;11.258;2022-08-19T10:17:33;95219.69;;;22.21;93.16
25526;BME280;13424;48.424;11.258;2022-08-19T10:20:01;95227.34;;;22.01;94.78
25526;BME280;13424;48.424;11.258;2022-08-19T10:22:30;95230.53;;;21.95;94.30
25526;BME280;13424;48.424;11.258;2022-08-19T10:24:56;95221.75;;;22.07;93.78
25526;BME280;13424;48.424;11.258;2022-08-19T10:27:22;95228.00;;;21.98;93.55
25526;BME280;13424;48.424;11.258;2022-08-19T10:29:48;95230.53;;;21.78;95.62
25526;BME280;13424;48.424;11.258;2022-08-19T10:32:14;95224.78;;;21.88;95.30
25526;BME280;13424;48.424;11.258;2022-08-19T10:34:40;95231.50;;;21.82;94.86
25526;BME280;13424;48.424;11.258;2022-08-19T10:37:06;95236.13;;;21.90;94.26
25526;BME280;13424;48.424;11.258;2022-08-19T10:39:35;95241.09;;;21.96;93.97
25526;BME280;13424;48.424;11.258;2022-08-19T10:42:07;95231.03;;;21.88;94.25
25526;BME280;13424;48.424;11.258;2022-08-19T10:44:33;95237.06;;;22.02;93.83
25526;BME280;13424;48.424;11.258;2022-08-19T10:47:02;95238.19;;;21.93;94.88
25526;BME280;13424;48.424;11.258;2022-08-19T10:49:28;95235.81;;;21.91;94.65
25526;BME280;13424;48.424;11.258;2022-08-19T10:51:56;95237.56;;;21.79;95.61
25526;BME280;13424;48.424;11.258;2022-08-19T10:55:05;95237.56;;;21.96;94.61
25526;BME280;13424;48.424;11.258;2022-08-19T10:57:49;95243.81;;;21.96;93.68
25526;BME280;13424;48.424;11.258;2022-08-19T11:00:16;95234.69;;;21.84;95.26
25526;BME280;13424;48.424;11.258;2022-08-19T11:02:43;95231.66;;;21.85;94.87
25526;BME280;13424;48.424;11.258;2022-08-19T11:05:09;95232.13;;;21.87;94.79
25526;BME280;13424;48.424;11.258;2022-08-19T11:07:40;95230.69;;;21.98;93.07
25526;BME280;13424;48.424;11.258;2022-08-19T11:10:10;95234.69;;;21.75;94.60
25526;BME280;13424;48.424;11.258;2022-08-19T11:12:40;95223.19;;;21.95;93.65
25526;BME280;13424;48.424;11.258;2022-08-19T11:15:09;95229.59;;;22.17;93.66
25526;BME280;13424;48.424;11.258;2022-08-19T11:17:38;95225.28;;;21.98;94.38
25526;BME280;13424;48.424;11.258;2022-08-19T11:20:14;95233.88;;;22.44;93.33
25526;BME280;13424;48.424;11.258;2022-08-19T11:22:41;95227.78;;;22.47;92.04
25526;BME280;13424;48.424;11.258;2022-08-19T11:25:10;95236.66;;;22.65;91.63
25526;BME280;13424;48.424;11.258;2022-08-19T11:27:42;95231.72;;;22.58;92.27
25526;BME280;13424;48.424;11.258;2022-08-19T11:30:12;95235.56;;;22.57;92.94
25526;BME280;13424;48.424;11.258;2022-08-19T11:32:40;95228.97;;;22.20;93.70
25526;BME280;13424;48.424;11.258;2022-08-19T11:35:07;95230.22;;;22.22;94.22
25526;BME280;13424;48.424;11.258;2022-08-19T11:37:34;95234.69;;;22.36;94.08
25526;BME280;13424;48.424;11.258;2022-08-19T11:40:05;95233.75;;;22.78;91.10
25526;BME280;13424;48.424;11.258;2022-08-19T11:42:31;95235.31;;;22.33;92.65
25526;BME280;13424;48.424;11.258;2022-08-19T11:45:16;95239.09;;;23.04;89.06
25526;BME280;13424;48.424;11.258;2022-08-19T11:47:42;95230.56;;;22.76;90.92
25526;BME280;13424;48.424;11.258;2022-08-19T11:50:09;95233.09;;;22.81;89.32
25526;BME280;13424;48.424;11.258;2022-08-19T11:52:35;95229.31;;;22.65;88.49
25526;BME280;13424;48.424;11.258;2022-08-19T11:55:02;95218.94;;;22.67;89.54
25526;BME280;13424;48.424;11.258;2022-08-19T11:57:28;95231.44;;;22.98;87.73
25526;BME280;13424;48.424;11.258;2022-08-19T11:59:55;95219.03;;;22.88;88.94
25526;BME280;13424;48.424;11.258;2022-08-19T12:02:21;95221.66;;;23.05;87.52
25526;BME280;13424;48.424;11.258;2022-08-19T12:04:47;95222.31;;;22.55;89.98
25526;BME280;13424;48.424;11.258;2022-08-19T12:07:13;95226.22;;;22.37;91.36
25526;BME280;13424;48.424;11.258;2022-08-19T12:09:39;95226.69;;;21.96;92.25
25526;BME280;13424;48.424;11.258;2022-08-19T12:12:06;95223.19;;;21.95;92.01
25526;BME280;13424;48.424;11.258;2022-08-19T12:14:32;95226.69;;;21.87;93.52
25526;BME280;13424;48.424;11.258;2022-08-19T12:16:58;95226.22;;;22.28;92.05
25526;BME280;13424;48.424;11.258;2022-08-19T12:19:24;95228.09;;;22.54;90.36
25526;BME280;13424;48.424;11.258;2022-08-19T12:21:51;95231.06;;;22.70;92.42
25526;BME280;13424;48.424;11.258;2022-08-19T12:24:19;95228.66;;;22.86;89.73
25526;BME280;13424;48.424;11.258;2022-08-19T12:26:49;95236.00;;;22.85;89.05
25526;BME280;13424;48.424;11.258;2022-08-19T12:29:15;95232.63;;;22.88;89.54
25526;BME280;13424;48.424;11.258;2022-08-19T12:31:41;95238.19;;;22.36;89.37
25526;BME280;13424;48.424;11.258;2022-08-19T12:34:07;95232.66;;;22.71;89.55
25526;BME280;13424;48.424;11.258;2022-08-19T12:36:33;95236.41;;;22.49;88.78
25526;BME280;13424;48.424;11.258;2022-08-19T12:38:59;95246.34;;;22.19;90.55
25526;BME280;13424;48.424;11.258;2022-08-19T12:41:26;95240.44;;;21.99;91.24
25526;BME280;13424;48.424;11.258;2022-08-19T12:43:52;95241.88;;;22.06;92.52
25526;BME280;13424;48.424;11.258;2022-08-19T12:46:19;95242.69;;;22.06;91.72
25526;BME280;13424;48.424;11.258;2022-08-19T12:48:46;95241.22;;;22.26;90.78
25526;BME280;13424;48.424;11.258;2022-08-19T12:51:16;95258.31;;;22.35;89.73
25526;BME280;13424;48.424;11.258;2022-08-19T12:53:44;95259.91;;;21.93;91.28
25526;BME280;13424;48.424;11.258;2022-08-19T12:56:12;95262.47;;;21.98;91.81
25526;BME280;13424;48.424;11.258;2022-08-19T12:58:40;95262.47;;;22.07;92.49
25526;BME280;13424;48.424;11.258;2022-08-19T13:01:16;95260.75;;;22.28;91.24
25526;BME280;13424;48.424;11.258;2022-08-19T13:03:45;95259.25;;;22.56;90.02
25526;BME280;13424;48.424;11.258;2022-08-19T13:06:11;95260.38;;;22.03;91.53
25526;BME280;13424;48.424;11.258;2022-08-19T13:08:37;95260.72;;;21.76;93.92
25526;BME280;13424;48.424;11.258;2022-08-19T13:11:11;95278.63;;;22.12;92.27
25526;BME280;13424;48.424;11.258;2022-08-19T13:13:41;95272.25;;;22.08;91.68
25526;BME280;13424;48.424;11.258;2022-08-19T13:16:10;95269.84;;;22.32;91.00
25526;BME280;13424;48.424;11.258;2022-08-19T13:18:38;95262.50;;;22.24;89.76